createdAt,value
2022-08-03T00:01:30.595Z,99973.38
2022-08-03T00:03:57.626Z,99976.88
2022-08-03T00:06:24.726Z,99969.72
2022-08-03T00:08:52.032Z,99976.66
2022-08-03T00:11:19.364Z,99973.00
2022-08-03T00:13:46.654Z,99960.31
2022-08-03T00:16:14.614Z,99978.88
2022-08-03T00:18:42.324Z,99980.53
2022-08-03T00:21:09.961Z,99982.75
2022-08-03T00:23:51.266Z,99983.78
2022-08-03T00:26:19.027Z,99982.38
2022-08-03T00:28:46.010Z,99981.97
2022-08-03T00:31:13.487Z,99982.81
2022-08-03T00:33:59.034Z,99977.88
2022-08-03T00:36:27.619Z,99977.06
2022-08-03T00:38:55.056Z,99981.53
2022-08-03T00:41:22.029Z,99979.94
2022-08-03T00:43:49.072Z,99969.09
2022-08-03T00:46:21.060Z,99971.16
2022-08-03T00:48:52.767Z,99976.25
2022-08-03T00:51:21.946Z,99964.22
2022-08-03T00:53:50.278Z,99954.19
2022-08-03T00:56:17.849Z,99973.81
2022-08-03T00:58:48.001Z,99969.53
2022-08-03T01:01:15.599Z,99971.97
2022-08-03T01:03:43.098Z,99965.06
2022-08-03T01:06:15.948Z,99960.53
2022-08-03T01:08:57.315Z,99961.16
2022-08-03T01:11:28.658Z,99960.34
2022-08-03T01:14:27.350Z,99962.59
2022-08-03T01:16:54.312Z,99972.22
2022-08-03T01:19:52.839Z,99959.13
2022-08-03T01:22:31.994Z,99960.75
2022-08-03T01:25:22.302Z,99969.34
2022-08-03T01:28:12.192Z,99971.97
2022-08-03T01:30:43.850Z,99971.97
2022-08-03T01:33:15.170Z,99976.28
2022-08-03T01:35:48.333Z,99966.25
2022-08-03T01:38:33.811Z,99966.47
2022-08-03T01:41:07.969Z,99976.69
2022-08-03T01:44:26.629Z,99987.06
2022-08-03T01:46:26.423Z,99981.75
2022-08-03T01:48:55.363Z,99988.13
2022-08-03T01:51:23.924Z,99988.91
2022-08-03T01:54:12.135Z,99988.13
2022-08-03T01:56:42.959Z,99979.94
2022-08-03T01:59:12.316Z,99981.34
2022-08-03T02:02:32.170Z,99982.00
2022-08-03T02:04:29.366Z,99985.06
2022-08-03T02:07:01.157Z,99990.16
2022-08-03T02:09:31.998Z,99987.72
2022-08-03T02:12:00.885Z,99988.97
2022-08-03T02:14:29.054Z,99989.75
2022-08-03T02:16:57.654Z,99990.00
2022-08-03T02:19:26.164Z,99989.34
2022-08-03T02:21:56.602Z,99987.72
2022-08-03T02:24:30.197Z,99984.47
2022-08-03T02:26:58.888Z,99985.66
2022-08-03T02:29:39.457Z,99988.53
2022-08-03T02:32:17.632Z,99995.28
2022-08-03T02:34:47.678Z,99994.81
2022-08-03T02:37:18.153Z,100001.97
2022-08-03T02:39:47.119Z,100003.19
2022-08-03T02:42:17.406Z,100001.56
2022-08-03T02:44:48.620Z,99994.56
2022-08-03T02:47:21.147Z,99997.41
2022-08-03T02:49:52.449Z,99996.59
2022-08-03T02:52:23.526Z,99998.41
2022-08-03T02:54:53.901Z,99998.63
2022-08-03T02:57:23.559Z,100000.66
2022-08-03T02:59:52.422Z,100010.44
2022-08-03T03:02:20.793Z,100000.56
2022-08-03T03:05:52.793Z,100004.63
2022-08-03T03:07:51.256Z,100012.19
2022-08-03T03:10:21.600Z,99998.03
2022-08-03T03:12:52.288Z,100010.06
2022-08-03T03:15:19.582Z,100017.84
2022-08-03T03:17:49.878Z,100009.59
2022-08-03T03:20:29.358Z,100014.88
2022-08-03T03:23:00.637Z,100016.25
2022-08-03T03:25:30.897Z,100010.91
2022-08-03T03:28:00.391Z,100013.72
2022-08-03T03:30:30.100Z,100015.53
2022-08-03T03:32:58.968Z,100017.25
2022-08-03T03:35:28.073Z,100017.97
2022-08-03T03:37:55.482Z,100025.03
2022-08-03T03:40:23.238Z,100025.53
2022-08-03T03:42:50.839Z,100021.00
2022-08-03T03:45:18.933Z,100021.81
2022-08-03T03:47:46.004Z,100017.75
2022-08-03T03:50:13.278Z,100024.28
2022-08-03T03:52:40.291Z,100017.97
2022-08-03T03:55:07.832Z,100015.63
2022-08-03T03:57:35.311Z,100019.03
2022-08-03T04:00:02.507Z,100019.81
2022-08-03T04:02:31.842Z,100020.59
2022-08-03T04:05:17.498Z,100023.19
2022-08-03T04:08:16.612Z,100024.31
2022-08-03T04:11:00.766Z,100032.69
2022-08-03T04:13:40.733Z,100033.53
2022-08-03T04:16:10.970Z,100030.31
2022-08-03T04:18:40.581Z,100034.03
2022-08-03T04:21:11.666Z,100038.16
2022-08-03T04:23:44.999Z,100035.19
2022-08-03T04:26:15.252Z,100041.03
2022-08-03T04:28:46.178Z,100034.88
2022-08-03T04:31:15.113Z,100037.28
2022-08-03T04:33:45.026Z,100035.00
2022-08-03T04:36:16.300Z,100042.50
2022-08-03T04:39:06.965Z,100032.84
2022-08-03T04:42:06.732Z,100023.47
2022-08-03T04:44:28.127Z,100031.09
2022-08-03T04:46:57.195Z,100035.16
2022-08-03T04:49:24.759Z,100036.25
2022-08-03T04:51:52.832Z,100029.47
2022-08-03T04:54:19.827Z,100030.16
2022-08-03T04:56:46.881Z,100036.53
2022-08-03T04:59:14.325Z,100031.94
2022-08-03T05:01:42.491Z,100029.84
2022-08-03T05:04:09.821Z,100031.66
2022-08-03T05:06:37.037Z,100023.22
2022-08-03T05:09:15.038Z,100028.81
2022-08-03T05:12:02.040Z,100033.56
2022-08-03T05:14:29.165Z,100033.97
2022-08-03T05:16:56.112Z,100029.13
2022-08-03T05:19:23.136Z,100033.69
2022-08-03T05:21:52.386Z,100034.91
2022-08-03T05:24:20.083Z,100032.06
2022-08-03T05:26:47.094Z,100035.78
2022-08-03T05:29:14.176Z,100027.25
2022-08-03T05:31:41.146Z,100039.56
2022-08-03T05:34:08.411Z,100036.16
2022-08-03T05:36:35.450Z,100033.97
2022-08-03T05:39:03.022Z,100039.41
2022-08-03T05:41:36.548Z,100037.69
2022-08-03T05:44:05.174Z,100042.34
2022-08-03T05:46:32.229Z,100042.47
2022-08-03T05:48:59.387Z,100034.88
2022-08-03T05:51:26.577Z,100033.44
2022-08-03T05:53:53.605Z,100041.47
2022-08-03T05:56:26.910Z,100029.81
2022-08-03T05:58:54.160Z,100029.66
2022-08-03T06:01:22.176Z,100026.56
2022-08-03T06:03:50.904Z,100024.44
2022-08-03T06:06:18.846Z,100024.88
2022-08-03T06:08:46.607Z,100022.59
2022-08-03T06:11:13.900Z,100028.75
2022-08-03T06:13:41.696Z,100028.31
2022-08-03T06:16:08.868Z,100028.19
2022-08-03T06:18:36.507Z,100030.16
2022-08-03T06:21:14.098Z,100021.53
2022-08-03T06:23:53.179Z,100038.28
2022-08-03T06:26:22.721Z,100028.75
2022-08-03T06:28:52.812Z,100033.34
2022-08-03T06:31:24.189Z,100029.75
2022-08-03T06:34:34.182Z,100025.19
2022-08-03T06:36:39.221Z,100045.19
2022-08-03T06:39:06.495Z,100037.44
2022-08-03T06:41:37.442Z,100034.59
2022-08-03T06:44:08.533Z,100035.38
2022-08-03T06:46:37.543Z,100043.28
2022-08-03T06:49:04.663Z,100044.94
2022-08-03T06:52:37.461Z,100038.03
2022-08-03T06:54:19.029Z,100037.66
2022-08-03T06:56:46.053Z,100038.00
2022-08-03T07:00:05.888Z,100037.91
2022-08-03T07:02:00.036Z,100042.16
2022-08-03T07:04:26.982Z,100038.59
2022-08-03T07:06:55.329Z,100049.84
2022-08-03T07:09:22.677Z,100047.81
2022-08-03T07:11:49.703Z,100043.75
2022-08-03T07:14:16.812Z,100049.41
2022-08-03T07:16:43.799Z,100045.88
2022-08-03T07:19:11.231Z,100047.88
2022-08-03T07:21:38.391Z,100039.34
2022-08-03T07:24:05.897Z,100043.19
2022-08-03T07:26:32.898Z,100041.13
2022-08-03T07:29:01.665Z,100043.59
2022-08-03T07:31:28.711Z,100035.00
2022-08-03T07:34:01.602Z,100043.13
2022-08-03T07:36:28.657Z,100039.25
2022-08-03T07:38:55.650Z,100051.63
2022-08-03T07:41:22.704Z,100043.91
2022-08-03T07:43:49.709Z,100037.66
2022-08-03T07:46:16.688Z,100040.59
2022-08-03T07:48:43.670Z,100048.19
2022-08-03T07:51:10.889Z,100044.00
2022-08-03T07:53:37.925Z,100051.50
2022-08-03T07:56:17.742Z,100050.97
2022-08-03T07:58:44.785Z,100053.25
2022-08-03T08:01:11.944Z,100043.34
2022-08-03T08:03:52.373Z,100050.41
2022-08-03T08:06:21.320Z,100047.44
2022-08-03T08:08:48.412Z,100058.03
2022-08-03T08:11:15.503Z,100047.84
2022-08-03T08:13:42.552Z,100048.44
2022-08-03T08:16:09.616Z,100048.00
2022-08-03T08:18:40.124Z,100044.59
2022-08-03T08:21:07.362Z,100056.97
2022-08-03T08:23:42.032Z,100053.94
2022-08-03T08:26:13.377Z,100057.31
2022-08-03T08:28:40.459Z,100046.75
2022-08-03T08:31:07.976Z,100059.06
2022-08-03T08:36:24.131Z,100055.50
2022-08-03T08:38:57.621Z,100057.63
2022-08-03T08:41:25.847Z,100049.84
2022-08-03T08:44:00.247Z,100053.38
2022-08-03T08:46:42.661Z,100055.47
2022-08-03T08:49:27.049Z,100039.91
2022-08-03T08:52:00.915Z,100054.16
2022-08-03T08:54:32.593Z,100049.97
2022-08-03T08:57:21.094Z,100048.59
2022-08-03T08:59:56.990Z,100053.44
2022-08-03T09:02:25.340Z,100046.25
2022-08-03T09:04:53.535Z,100052.16
2022-08-03T09:07:20.878Z,100041.69
2022-08-03T09:10:11.496Z,100056.97
2022-08-03T09:12:48.192Z,100046.94
2022-08-03T09:15:21.733Z,100048.44
2022-08-03T09:17:51.306Z,100045.72
2022-08-03T09:20:20.306Z,100055.47
2022-08-03T09:22:59.408Z,100054.97
2022-08-03T09:25:30.494Z,100048.44
2022-08-03T09:28:05.318Z,100052.56
2022-08-03T09:30:34.599Z,100055.59
2022-08-03T09:33:04.312Z,100046.91
2022-08-03T09:38:24.307Z,100040.53
2022-08-03T09:40:54.835Z,100060.41
2022-08-03T09:43:27.658Z,100056.66
2022-08-03T09:46:07.602Z,100060.06
2022-08-03T09:48:35.656Z,100048.97
2022-08-03T09:51:13.836Z,100056.31
2022-08-03T09:53:59.341Z,100048.00
2022-08-03T09:56:45.130Z,100046.78
2022-08-03T09:59:13.527Z,100047.81
2022-08-03T10:01:42.017Z,100043.38
2022-08-03T10:04:17.133Z,100041.41
2022-08-03T10:06:45.744Z,100053.91
2022-08-03T10:09:15.479Z,100047.31
2022-08-03T10:11:43.869Z,100047.91
2022-08-03T10:14:19.185Z,100050.94
2022-08-03T10:16:47.921Z,100050.06
2022-08-03T10:19:15.855Z,100048.47
2022-08-03T10:21:50.178Z,100052.44
2022-08-03T10:24:24.559Z,100044.28
2022-08-03T10:26:51.873Z,100047.78
2022-08-03T10:29:25.275Z,100049.41
2022-08-03T10:31:58.129Z,100048.28
2022-08-03T10:34:35.340Z,100049.38
2022-08-03T10:37:08.586Z,100050.63
2022-08-03T10:39:36.393Z,100049.75
2022-08-03T10:42:05.535Z,100043.28
2022-08-03T10:44:42.465Z,100052.81
2022-08-03T10:47:10.442Z,100056.63
2022-08-03T10:49:38.424Z,100054.38
2022-08-03T10:52:13.758Z,100052.56
2022-08-03T10:55:12.529Z,100058.88
2022-08-03T10:57:56.229Z,100060.16
2022-08-03T11:00:30.387Z,100065.03
2022-08-03T11:03:08.913Z,100060.25
2022-08-03T11:05:41.586Z,100061.13
2022-08-03T11:08:28.815Z,100053.53
2022-08-03T11:10:58.995Z,100057.09
2022-08-03T11:13:31.066Z,100053.72
2022-08-03T11:16:02.371Z,100049.53
2022-08-03T11:18:31.131Z,100059.06
2022-08-03T11:21:00.591Z,100045.16
2022-08-03T11:24:04.309Z,100048.84
2022-08-03T11:26:31.460Z,100049.97
2022-08-03T11:29:31.058Z,100046.25
2022-08-03T11:31:58.203Z,100051.47
2022-08-03T11:34:25.295Z,100051.72
2022-08-03T11:37:37.360Z,100053.53
2022-08-03T11:40:04.924Z,100051.31
2022-08-03T11:42:35.387Z,100056.38
2022-08-03T11:45:07.710Z,100051.13
2022-08-03T11:47:50.444Z,100052.78
2022-08-03T11:50:20.063Z,100049.47
2022-08-03T11:52:48.157Z,100052.31
2022-08-03T11:55:20.488Z,100051.81
2022-08-03T11:59:01.615Z,100051.56
2022-08-03T12:00:35.561Z,100059.69
2022-08-03T12:03:12.149Z,100051.88
2022-08-03T12:05:42.506Z,100048.63
2022-08-03T12:08:40.128Z,100043.03
2022-08-03T12:11:10.864Z,100044.00
2022-08-03T12:13:56.647Z,100044.13
2022-08-03T12:16:29.156Z,100039.56
2022-08-03T12:19:05.254Z,100040.91
2022-08-03T12:21:32.829Z,100040.91
2022-08-03T12:24:03.551Z,100046.25
2022-08-03T12:26:58.815Z,100045.94
2022-08-03T12:29:27.250Z,100042.38
2022-08-03T12:31:55.952Z,100040.66
2022-08-03T12:34:23.473Z,100046.88
2022-08-03T12:36:52.577Z,100042.72
2022-08-03T12:39:24.385Z,100048.28
2022-08-03T12:41:55.537Z,100042.31
2022-08-03T12:44:33.927Z,100043.56
2022-08-03T12:47:02.527Z,100049.97
2022-08-03T12:49:44.466Z,100053.78
2022-08-03T12:52:11.666Z,100049.56
2022-08-03T12:54:38.727Z,100055.03
2022-08-03T12:57:08.248Z,100058.25
2022-08-03T12:59:45.211Z,100050.59
2022-08-03T13:02:24.182Z,100052.50
2022-08-03T13:04:54.174Z,100053.16
2022-08-03T13:07:22.191Z,100050.66
2022-08-03T13:09:54.707Z,100048.25
2022-08-03T13:12:26.317Z,100053.44
2022-08-03T13:14:59.354Z,100053.50
2022-08-03T13:17:27.253Z,100055.44
2022-08-03T13:19:54.322Z,100058.47
2022-08-03T13:22:27.459Z,100052.00
2022-08-03T13:24:56.746Z,100050.47
2022-08-03T13:28:03.721Z,100049.25
2022-08-03T13:30:12.335Z,100048.28
2022-08-03T13:32:39.611Z,100045.66
2022-08-03T13:35:07.830Z,100050.00
2022-08-03T13:37:35.623Z,100045.47
2022-08-03T13:40:05.865Z,100039.34
2022-08-03T13:42:34.601Z,100043.69
2022-08-03T13:45:02.549Z,100039.41
2022-08-03T13:47:31.391Z,100042.19
2022-08-03T13:50:01.197Z,100047.09
2022-08-03T13:52:34.280Z,100044.38
2022-08-03T13:55:06.447Z,100040.94
2022-08-03T13:58:03.515Z,100043.97
2022-08-03T14:00:27.433Z,100040.75
2022-08-03T14:03:12.264Z,100046.75
2022-08-03T14:05:42.152Z,100045.91
2022-08-03T14:08:09.545Z,100043.25
2022-08-03T14:10:38.929Z,100048.94
2022-08-03T14:13:06.873Z,100044.88
2022-08-03T14:15:37.902Z,100043.53
2022-08-03T14:18:15.702Z,100051.06
2022-08-03T14:20:48.720Z,100045.13
2022-08-03T14:23:18.795Z,100040.81
2022-08-03T14:25:51.641Z,100043.47
2022-08-03T14:28:22.756Z,100045.63
2022-08-03T14:30:56.050Z,100048.03
2022-08-03T14:33:24.484Z,100040.72
2022-08-03T14:35:52.293Z,100043.69
2022-08-03T14:38:20.239Z,100039.91
2022-08-03T14:40:47.919Z,100050.72
2022-08-03T14:43:15.689Z,100040.22
2022-08-03T14:45:42.821Z,100044.03
2022-08-03T14:50:29.667Z,100045.09
2022-08-03T14:50:57.241Z,100047.84
2022-08-03T14:53:24.620Z,100049.19
2022-08-03T14:55:53.488Z,100051.66
2022-08-03T14:58:22.303Z,100054.31
2022-08-03T15:00:51.049Z,100052.75
2022-08-03T15:03:21.577Z,100057.34
2022-08-03T15:05:55.756Z,100054.41
2022-08-03T15:08:24.817Z,100046.31
2022-08-03T15:10:52.787Z,100050.09
2022-08-03T15:13:20.891Z,100048.22
2022-08-03T15:15:48.615Z,100050.13
2022-08-03T15:18:16.019Z,100051.19
2022-08-03T15:20:45.597Z,100049.03
2022-08-03T15:23:14.937Z,100054.13
2022-08-03T15:26:28.329Z,100047.94
2022-08-03T15:28:30.692Z,100049.00
2022-08-03T15:30:57.888Z,100050.63
2022-08-03T15:33:25.390Z,100050.91
2022-08-03T15:35:53.455Z,100045.22
2022-08-03T15:38:25.627Z,100056.03
2022-08-03T15:40:59.193Z,100059.25
2022-08-03T15:43:26.300Z,100052.25
2022-08-03T15:48:41.691Z,100052.75
2022-08-03T15:51:09.688Z,100060.53
2022-08-03T15:53:37.381Z,100071.00
2022-08-03T15:56:09.830Z,100066.66
2022-08-03T15:59:09.202Z,100057.22
2022-08-03T16:01:27.975Z,100060.16
2022-08-03T16:03:55.623Z,100065.25
2022-08-03T16:06:34.840Z,100053.91
2022-08-03T16:09:23.823Z,100053.91
2022-08-03T16:11:54.068Z,100058.75
2022-08-03T16:14:34.301Z,100056.81
2022-08-03T16:17:03.912Z,100054.31
2022-08-03T16:19:30.971Z,100056.75
2022-08-03T16:21:57.989Z,100055.66
2022-08-03T16:24:28.127Z,100062.09
2022-08-03T16:26:56.422Z,100063.13
2022-08-03T16:29:24.043Z,100059.28
2022-08-03T16:31:52.394Z,100060.31
2022-08-03T16:34:20.122Z,100067.25
2022-08-03T16:36:47.271Z,100063.16
2022-08-03T16:39:14.297Z,100061.22
2022-08-03T16:41:53.976Z,100063.06
2022-08-03T16:44:30.220Z,100069.72
2022-08-03T16:46:57.968Z,100058.34
2022-08-03T16:49:54.265Z,100069.06
2022-08-03T16:52:13.016Z,100066.25
2022-08-03T16:54:40.855Z,100075.03
2022-08-03T16:57:08.783Z,100073.88
2022-08-03T16:59:36.969Z,100076.19
2022-08-03T17:02:10.037Z,100073.88
2022-08-03T17:04:40.232Z,100076.50
2022-08-03T17:07:08.889Z,100079.09
2022-08-03T17:09:38.185Z,100084.09
2022-08-03T17:12:07.166Z,100077.53
2022-08-03T17:14:34.303Z,100086.56
2022-08-03T17:17:03.857Z,100083.78
2022-08-03T17:19:33.369Z,100088.28
2022-08-03T17:22:04.356Z,100088.69
2022-08-03T17:24:41.349Z,100096.94
2022-08-03T17:28:41.602Z,100102.72
2022-08-03T17:30:12.222Z,100100.47
2022-08-03T17:32:57.129Z,100106.31
2022-08-03T17:35:36.701Z,100110.47
2022-08-03T17:38:10.289Z,100112.50
2022-08-03T17:40:48.157Z,100112.16
2022-08-03T17:44:13.019Z,100110.66
2022-08-03T17:46:07.315Z,100110.84
2022-08-03T17:48:41.357Z,100110.84
2022-08-03T17:51:30.450Z,100113.03
2022-08-03T17:54:27.031Z,100116.19
2022-08-03T17:56:54.692Z,100110.75
2022-08-03T17:59:51.497Z,100122.22
2022-08-03T18:06:11.371Z,100126.09
2022-08-03T18:08:27.812Z,100135.19
2022-08-03T18:11:16.851Z,100133.56
2022-08-03T18:13:57.613Z,100135.66
2022-08-03T18:16:34.711Z,100136.16
2022-08-03T18:19:09.552Z,100140.47
2022-08-03T18:22:03.088Z,100138.25
2022-08-03T18:24:30.923Z,100145.50
2022-08-03T18:27:02.311Z,100151.75
2022-08-03T18:29:30.818Z,100153.16
2022-08-03T18:32:03.415Z,100154.50
2022-08-03T18:34:34.613Z,100161.19
2022-08-03T18:37:07.364Z,100167.81
2022-08-03T18:39:49.559Z,100173.19
2022-08-03T18:42:19.499Z,100172.16
2022-08-03T18:44:53.105Z,100175.88
2022-08-03T18:47:50.969Z,100173.19
2022-08-03T18:50:34.184Z,100172.53
2022-08-03T18:54:03.419Z,100183.72
2022-08-03T18:56:31.786Z,100175.47
2022-08-03T18:59:30.301Z,100189.25
2022-08-03T19:02:05.237Z,100188.69
2022-08-03T19:04:55.160Z,100197.06
2022-08-03T19:07:27.124Z,100194.63
2022-08-03T19:09:58.439Z,100196.38
2022-08-03T19:12:39.492Z,100199.81
2022-08-03T19:15:13.389Z,100205.63
2022-08-03T19:17:50.237Z,100194.44
2022-08-03T19:20:31.114Z,100194.69
2022-08-03T19:22:59.662Z,100197.00
2022-08-03T19:25:35.421Z,100197.94
2022-08-03T19:28:07.200Z,100199.81
2022-08-03T19:30:38.821Z,100192.94
2022-08-03T19:33:14.507Z,100201.31
2022-08-03T19:35:55.450Z,100202.03
2022-08-03T19:38:28.224Z,100202.91
2022-08-03T19:40:59.857Z,100201.16
2022-08-03T19:43:52.850Z,100198.84
2022-08-03T19:46:30.179Z,100195.91
2022-08-03T19:49:16.040Z,100190.44
2022-08-03T19:51:59.412Z,100187.03
2022-08-03T19:54:52.923Z,100186.34
2022-08-03T19:57:30.756Z,100185.97
2022-08-03T20:00:03.597Z,100189.31
2022-08-03T20:02:40.590Z,100194.53
2022-08-03T20:08:00.163Z,100193.22
2022-08-03T20:10:33.233Z,100188.75
2022-08-03T20:13:01.876Z,100192.34
2022-08-03T20:15:33.800Z,100196.06
2022-08-03T20:18:16.883Z,100203.94
2022-08-03T20:20:59.978Z,100188.69
2022-08-03T20:23:37.306Z,100198.31
2022-08-03T20:26:05.801Z,100203.50
2022-08-03T20:28:49.703Z,100202.53
2022-08-03T20:31:20.809Z,100210.66
2022-08-03T20:33:49.784Z,100209.47
2022-08-03T20:36:18.568Z,100216.28
2022-08-03T20:38:48.062Z,100220.22
2022-08-03T20:41:17.439Z,100221.50
2022-08-03T20:43:45.165Z,100230.53
2022-08-03T20:46:29.474Z,100231.19
2022-08-03T20:49:04.102Z,100231.88
2022-08-03T20:51:50.051Z,100212.69
2022-08-03T20:54:30.810Z,100236.25
2022-08-03T20:57:03.841Z,100231.53
2022-08-03T20:59:47.090Z,100240.56
2022-08-03T21:02:28.822Z,100234.03
2022-08-03T21:05:03.219Z,100237.97
2022-08-03T21:08:04.161Z,100245.00
2022-08-03T21:10:29.585Z,100248.94
2022-08-03T21:12:56.490Z,100122.69
2022-08-03T21:13:10.908Z,100190.09
2022-08-03T21:13:18.196Z,100241.97
2022-08-03T21:16:11.386Z,100250.41
2022-08-03T21:18:49.532Z,100251.06
2022-08-03T21:21:20.170Z,100248.25
2022-08-03T21:23:52.844Z,100245.41
2022-08-03T21:26:25.480Z,100244.63
2022-08-03T21:28:54.975Z,100249.53
2022-08-03T21:31:25.378Z,100249.16
2022-08-03T21:33:56.255Z,100252.28
2022-08-03T21:36:24.891Z,100247.59
2022-08-03T21:38:56.190Z,100239.44
2022-08-03T21:41:25.428Z,100245.19
2022-08-03T21:43:52.496Z,100255.88
2022-08-03T21:46:20.735Z,100254.44
2022-08-03T21:48:51.406Z,100248.09
2022-08-03T21:51:20.109Z,100251.81
2022-08-03T21:54:00.385Z,100257.78
2022-08-03T21:56:41.280Z,100261.69
2022-08-03T21:59:17.245Z,100265.81
2022-08-03T22:01:49.039Z,100266.25
2022-08-03T22:04:50.387Z,100265.03
2022-08-03T22:07:08.633Z,100265.88
2022-08-03T22:09:36.562Z,100257.13
2022-08-03T22:12:04.566Z,100265.31
2022-08-03T22:14:34.962Z,100254.25
2022-08-03T22:17:03.380Z,100267.19
2022-08-03T22:19:33.174Z,100272.94
2022-08-03T22:22:01.753Z,100271.50
2022-08-03T22:24:32.087Z,100268.66
2022-08-03T22:27:19.988Z,100270.94
2022-08-03T22:29:47.360Z,100282.31
2022-08-03T22:32:14.343Z,100279.81
2022-08-03T22:34:43.009Z,100272.84
2022-08-03T22:37:11.519Z,100278.00
2022-08-03T22:39:39.963Z,100280.28
2022-08-03T22:42:07.413Z,100277.19
2022-08-03T22:44:36.049Z,100282.50
2022-08-03T22:47:04.462Z,100289.09
2022-08-03T22:49:32.647Z,100290.72
2022-08-03T22:52:01.499Z,100284.59
2022-08-03T22:54:31.439Z,100273.94
2022-08-03T22:56:58.797Z,100295.25
2022-08-03T22:59:40.488Z,100295.44
2022-08-03T23:02:20.169Z,100288.28
2022-08-03T23:04:52.389Z,100292.16
2022-08-03T23:07:23.635Z,100285.00
2022-08-03T23:09:51.687Z,100288.72
2022-08-03T23:12:20.446Z,100292.16
2022-08-03T23:14:56.523Z,100294.22
2022-08-03T23:17:24.435Z,100290.13
2022-08-03T23:19:53.879Z,100297.72
2022-08-03T23:22:30.056Z,100298.72
2022-08-03T23:24:59.237Z,100301.59
2022-08-03T23:27:28.235Z,100308.78
2022-08-03T23:29:58.549Z,100306.31
2022-08-03T23:32:27.370Z,100300.19
2022-08-03T23:35:18.949Z,100294.03
2022-08-03T23:38:04.203Z,100311.06
2022-08-03T23:40:35.372Z,100312.06
2022-08-03T23:43:03.485Z,100303.06
2022-08-03T23:45:34.695Z,100301.00
2022-08-03T23:48:01.975Z,100312.69
2022-08-03T23:50:37.952Z,100314.13
2022-08-03T23:53:14.153Z,100317.81
2022-08-03T23:56:04.549Z,100321.09
2022-08-03T23:58:52.931Z,100315.34
